ASN logo
Last updated: 27 November 2020
Statuts:Enquête Officielle
Date:jeudi 5 mars 2020
Heure:08:03
Type/Sous-type:Silhouette image of generic C208 model; specific model in this crash may look slightly different
Cessna 208B Super Cargomaster
Operated by:CSA Air
On behalf of:FedEx Express
Immatriculation: N706FX
Numéro de série: 208B0426
Année de Fabrication: 1995
Heures de vol:11458
Moteurs: 1 Pratt & Whitney Canada PT6A-114A
Equipage:victimes: 0 / à bord: 1
Passagers:victimes: 0 / à bord: 0
Total:victimes: 0 / à bord: 1
Dégats de l'appareil: Substantiels
Lieu de l'accident:Rhinelander-Oneida County Airport, WI (RHI) (   Etats-Unis d'Amérique)
Phase de vol: A l'atterrissage (LDG)
Nature:Cargo
Aéroport de départ:Milwaukee-General Mitchell Airport, WI (MKE/KMKE), Etats-Unis d'Amérique
Aéroport de destination:Rhinelander-Oneida County Airport, WI (RHI/KRHI), Etats-Unis d'Amérique
Numéro de vol:8312
Détails:
A Cessna 208B Super Cargomaster, operated by CSA Air, flipped over and came to a rest between a taxiway and a runway during an attempted landing on runway 27 at Rhinelander-Oneida County Airport, Wisconsin, USA.
The pilot suffered minor injuries.
Visibility at the time of the accident was limited to due snowfall and fog.

Probable Cause:

Probable cause: "The pilot's improper decision to continue an instrument approach to landing following a loss of visual reference with the runway, which resulted in the airplane touching down left of the runway in snow and flipping over."

Accident investigation:
cover
Investigating agency: NTSB
Status: Investigation completed
Duration: 116 days (4 months)
Accident number: CEN20CA119
Download report: Final report

Sources:
» WJFW

METAR Weather report:
13:53 UTC / 07:53 local time:
KRHI 051353Z AUTO 18009KT 1/2SM SN FG OVC004 01/M01 A2967 RMK AO2 SLP069 P0009 T00061006

14:53 UTC / 08:53 local time:
KRHI 051453Z AUTO 19009KT 1/2SM SN FG OVC005 01/M01 A2966 RMK AO2 SLP062 P0011 60022 T00061006 56018


Photos

Add your photo of this accident or aircraft

Video, social media

Plan
This map shows the airport of departure and the intended destination of the flight. The line is connecting ADS-B datapoints from FlightAware.
La distance entre Milwaukee-General Mitchell Airport, WI et Rhinelander-Oneida County Airport, WI est de 321 km (201 miles).
Accident location: Approximate; accuracy within a few kilometers.

Les informations ci-dessus ne représentent pas l'opinion de la 'Flight Safety Foundation' ou de 'Aviation Safety Network' sur les causes de l'accident. Ces informations prélimimaires sont basées sur les faits tel qu'ils sont connus à ce jour.
languages: languages

Share